sensor_id;sensor_type;location;lat;lon;timestamp;temperature;humidity
19781;DHT22;10050;55.492;13.506;2023-02-01T00:01:38;4.10;99.90
19781;DHT22;10050;55.492;13.506;2023-02-01T00:04:03;4.20;99.90
19781;DHT22;10050;55.492;13.506;2023-02-01T00:06:29;4.20;99.90
19781;DHT22;10050;55.492;13.506;2023-02-01T00:08:55;4.20;99.90
19781;DHT22;10050;55.492;13.506;2023-02-01T00:11:21;4.20;99.90
19781;DHT22;10050;55.492;13.506;2023-02-01T00:13:47;4.20;99.90
19781;DHT22;10050;55.492;13.506;2023-02-01T00:16:19;4.20;99.90
19781;DHT22;10050;55.492;13.506;2023-02-01T00:18:50;4.20;99.90
19781;DHT22;10050;55.492;13.506;2023-02-01T00:21:18;4.20;99.90
19781;DHT22;10050;55.492;13.506;2023-02-01T00:23:45;4.20;99.90
19781;DHT22;10050;55.492;13.506;2023-02-01T00:26:15;4.20;99.90
19781;DHT22;10050;55.492;13.506;2023-02-01T00:28:41;4.20;99.90
19781;DHT22;10050;55.492;13.506;2023-02-01T00:31:07;4.20;99.90
19781;DHT22;10050;55.492;13.506;2023-02-01T00:33:33;4.20;99.90
19781;DHT22;10050;55.492;13.506;2023-02-01T00:36:07;4.20;99.90
19781;DHT22;10050;55.492;13.506;2023-02-01T00:38:35;4.20;99.90
19781;DHT22;10050;55.492;13.506;2023-02-01T00:41:09;4.20;99.90
19781;DHT22;10050;55.492;13.506;2023-02-01T00:43:35;4.20;99.90
19781;DHT22;10050;55.492;13.506;2023-02-01T00:46:01;4.20;99.90
19781;DHT22;10050;55.492;13.506;2023-02-01T00:48:27;4.30;99.90
19781;DHT22;10050;55.492;13.506;2023-02-01T00:50:53;4.20;99.90
19781;DHT22;10050;55.492;13.506;2023-02-01T00:53:18;4.20;99.90
19781;DHT22;10050;55.492;13.506;2023-02-01T00:55:45;4.20;99.90
19781;DHT22;10050;55.492;13.506;2023-02-01T00:58:11;4.20;99.90
19781;DHT22;10050;55.492;13.506;2023-02-01T01:00:37;4.20;99.90
19781;DHT22;10050;55.492;13.506;2023-02-01T01:03:03;4.20;99.90
19781;DHT22;10050;55.492;13.506;2023-02-01T01:05:46;4.20;99.90
19781;DHT22;10050;55.492;13.506;2023-02-01T01:08:12;4.20;99.90
19781;DHT22;10050;55.492;13.506;2023-02-01T01:10:38;4.20;99.90
19781;DHT22;10050;55.492;13.506;2023-02-01T01:13:04;4.20;99.90
19781;DHT22;10050;55.492;13.506;2023-02-01T01:15:29;4.20;99.90
19781;DHT22;10050;55.492;13.506;2023-02-01T01:17:55;4.20;99.90
19781;DHT22;10050;55.492;13.506;2023-02-01T01:20:21;4.20;99.90
19781;DHT22;10050;55.492;13.506;2023-02-01T01:22:49;4.20;99.90
19781;DHT22;10050;55.492;13.506;2023-02-01T01:25:15;4.20;99.90
19781;DHT22;10050;55.492;13.506;2023-02-01T01:27:40;4.30;99.90
19781;DHT22;10050;55.492;13.506;2023-02-01T01:30:06;4.30;99.90
19781;DHT22;10050;55.492;13.506;2023-02-01T01:32:33;4.30;99.90
19781;DHT22;10050;55.492;13.506;2023-02-01T01:34:58;4.30;99.90
19781;DHT22;10050;55.492;13.506;2023-02-01T01:37:24;4.30;99.90
19781;DHT22;10050;55.492;13.506;2023-02-01T01:39:50;4.30;99.90
19781;DHT22;10050;55.492;13.506;2023-02-01T01:42:15;4.40;99.90
19781;DHT22;10050;55.492;13.506;2023-02-01T01:45:31;4.30;99.90
19781;DHT22;10050;55.492;13.506;2023-02-01T01:47:55;4.30;99.90
19781;DHT22;10050;55.492;13.506;2023-02-01T01:50:26;4.40;99.90
19781;DHT22;10050;55.492;13.506;2023-02-01T01:52:53;4.40;99.90
19781;DHT22;10050;55.492;13.506;2023-02-01T01:55:21;4.40;99.90
19781;DHT22;10050;55.492;13.506;2023-02-01T01:57:53;4.40;99.90
19781;DHT22;10050;55.492;13.506;2023-02-01T02:00:21;4.40;99.90
19781;DHT22;10050;55.492;13.506;2023-02-01T02:02:48;4.40;99.90
19781;DHT22;10050;55.492;13.506;2023-02-01T02:05:15;4.40;99.90
19781;DHT22;10050;55.492;13.506;2023-02-01T02:07:45;4.40;99.90
19781;DHT22;10050;55.492;13.506;2023-02-01T02:10:13;4.40;99.90
19781;DHT22;10050;55.492;13.506;2023-02-01T02:12:41;4.40;99.90
19781;DHT22;10050;55.492;13.506;2023-02-01T02:15:09;4.40;99.90
19781;DHT22;10050;55.492;13.506;2023-02-01T02:39:48;4.40;99.90
19781;DHT22;10050;55.492;13.506;2023-02-01T02:42:43;4.40;99.90
19781;DHT22;10050;55.492;13.506;2023-02-01T02:45:40;4.40;99.90
19781;DHT22;10050;55.492;13.506;2023-02-01T02:48:35;4.30;99.90
19781;DHT22;10050;55.492;13.506;2023-02-01T02:51:09;4.30;99.90
19781;DHT22;10050;55.492;13.506;2023-02-01T02:54:09;4.30;99.90
19781;DHT22;10050;55.492;13.506;2023-02-01T02:56:56;4.30;99.90
19781;DHT22;10050;55.492;13.506;2023-02-01T02:59:44;4.30;99.90
19781;DHT22;10050;55.492;13.506;2023-02-01T03:02:29;4.40;99.90
19781;DHT22;10050;55.492;13.506;2023-02-01T03:05:15;4.40;99.90
19781;DHT22;10050;55.492;13.506;2023-02-01T03:21:25;4.50;99.90
19781;DHT22;10050;55.492;13.506;2023-02-01T03:23:53;4.50;99.90
19781;DHT22;10050;55.492;13.506;2023-02-01T03:26:22;4.50;99.90
19781;DHT22;10050;55.492;13.506;2023-02-01T03:28:57;4.50;99.90
19781;DHT22;10050;55.492;13.506;2023-02-01T03:31:27;4.50;99.90
19781;DHT22;10050;55.492;13.506;2023-02-01T03:33:53;4.50;99.90
19781;DHT22;10050;55.492;13.506;2023-02-01T03:36:35;4.50;99.90
19781;DHT22;10050;55.492;13.506;2023-02-01T03:39:15;4.50;99.90
19781;DHT22;10050;55.492;13.506;2023-02-01T03:41:45;4.50;99.90
19781;DHT22;10050;55.492;13.506;2023-02-01T03:44:20;4.50;99.90
19781;DHT22;10050;55.492;13.506;2023-02-01T03:47:03;4.50;99.90
19781;DHT22;10050;55.492;13.506;2023-02-01T03:49:35;4.50;99.90
19781;DHT22;10050;55.492;13.506;2023-02-01T03:52:03;4.50;99.90
19781;DHT22;10050;55.492;13.506;2023-02-01T03:54:31;4.50;99.90
19781;DHT22;10050;55.492;13.506;2023-02-01T03:56:59;4.50;99.90
19781;DHT22;10050;55.492;13.506;2023-02-01T03:59:26;4.50;99.90
19781;DHT22;10050;55.492;13.506;2023-02-01T04:01:52;4.50;99.90
19781;DHT22;10050;55.492;13.506;2023-02-01T04:04:18;4.50;99.90
19781;DHT22;10050;55.492;13.506;2023-02-01T04:06:50;4.50;99.90
19781;DHT22;10050;55.492;13.506;2023-02-01T04:09:17;4.50;99.90
19781;DHT22;10050;55.492;13.506;2023-02-01T04:11:42;4.50;99.90
19781;DHT22;10050;55.492;13.506;2023-02-01T04:14:08;4.40;99.90
19781;DHT22;10050;55.492;13.506;2023-02-01T04:16:34;4.40;99.90
19781;DHT22;10050;55.492;13.506;2023-02-01T04:19:00;4.40;99.90
19781;DHT22;10050;55.492;13.506;2023-02-01T04:21:26;4.40;99.90
19781;DHT22;10050;55.492;13.506;2023-02-01T04:23:52;4.40;99.90
19781;DHT22;10050;55.492;13.506;2023-02-01T04:26:18;4.40;99.90
19781;DHT22;10050;55.492;13.506;2023-02-01T04:28:45;4.40;99.90
19781;DHT22;10050;55.492;13.506;2023-02-01T04:31:14;4.30;99.90
19781;DHT22;10050;55.492;13.506;2023-02-01T04:33:39;4.30;99.90
19781;DHT22;10050;55.492;13.506;2023-02-01T04:36:05;4.30;99.90
19781;DHT22;10050;55.492;13.506;2023-02-01T04:38:31;4.30;99.90
19781;DHT22;10050;55.492;13.506;2023-02-01T04:40:58;4.30;99.90
19781;DHT22;10050;55.492;13.506;2023-02-01T04:43:24;4.30;99.90
19781;DHT22;10050;55.492;13.506;2023-02-01T04:45:50;4.20;99.90
19781;DHT22;10050;55.492;13.506;2023-02-01T04:48:17;4.20;99.90
19781;DHT22;10050;55.492;13.506;2023-02-01T04:50:44;4.20;99.90
19781;DHT22;10050;55.492;13.506;2023-02-01T04:53:13;4.20;99.90
19781;DHT22;10050;55.492;13.506;2023-02-01T04:55:39;4.20;99.90
19781;DHT22;10050;55.492;13.506;2023-02-01T04:58:05;4.20;99.90
19781;DHT22;10050;55.492;13.506;2023-02-01T05:00:30;4.20;99.90
19781;DHT22;10050;55.492;13.506;2023-02-01T05:02:56;4.20;99.90
19781;DHT22;10050;55.492;13.506;2023-02-01T05:05:22;4.20;99.90
19781;DHT22;10050;55.492;13.506;2023-02-01T05:07:47;4.20;99.90
19781;DHT22;10050;55.492;13.506;2023-02-01T05:10:13;4.20;99.90
19781;DHT22;10050;55.492;13.506;2023-02-01T05:12:38;4.20;99.90
19781;DHT22;10050;55.492;13.506;2023-02-01T05:15:23;4.10;99.90
19781;DHT22;10050;55.492;13.506;2023-02-01T05:17:48;4.10;99.90
19781;DHT22;10050;55.492;13.506;2023-02-01T05:20:14;4.10;99.90
19781;DHT22;10050;55.492;13.506;2023-02-01T05:22:41;4.10;99.90
19781;DHT22;10050;55.492;13.506;2023-02-01T05:25:07;4.10;99.90
19781;DHT22;10050;55.492;13.506;2023-02-01T05:27:33;4.10;99.90
19781;DHT22;10050;55.492;13.506;2023-02-01T05:29:58;4.10;99.90
19781;DHT22;10050;55.492;13.506;2023-02-01T05:32:24;4.00;99.90
19781;DHT22;10050;55.492;13.506;2023-02-01T05:34:50;4.00;99.90
19781;DHT22;10050;55.492;13.506;2023-02-01T05:37:15;4.00;99.90
19781;DHT22;10050;55.492;13.506;2023-02-01T05:39:41;4.00;99.90
19781;DHT22;10050;55.492;13.506;2023-02-01T05:42:07;4.10;99.90
19781;DHT22;10050;55.492;13.506;2023-02-01T05:44:32;4.10;99.90
19781;DHT22;10050;55.492;13.506;2023-02-01T05:46:58;4.10;99.90
19781;DHT22;10050;55.492;13.506;2023-02-01T05:49:23;4.10;99.90
19781;DHT22;10050;55.492;13.506;2023-02-01T05:51:49;4.10;99.90
19781;DHT22;10050;55.492;13.506;2023-02-01T05:54:15;4.10;99.90
19781;DHT22;10050;55.492;13.506;2023-02-01T05:56:40;4.10;99.90
19781;DHT22;10050;55.492;13.506;2023-02-01T05:59:06;4.00;99.90
19781;DHT22;10050;55.492;13.506;2023-02-01T06:01:32;4.00;99.90
19781;DHT22;10050;55.492;13.506;2023-02-01T06:03:57;4.00;99.90
19781;DHT22;10050;55.492;13.506;2023-02-01T06:06:23;4.00;99.90
19781;DHT22;10050;55.492;13.506;2023-02-01T06:08:48;4.00;99.90
19781;DHT22;10050;55.492;13.506;2023-02-01T06:11:14;4.00;99.90
19781;DHT22;10050;55.492;13.506;2023-02-01T06:13:40;4.00;99.90
19781;DHT22;10050;55.492;13.506;2023-02-01T06:16:06;4.00;99.90
19781;DHT22;10050;55.492;13.506;2023-02-01T06:18:33;4.00;99.90
19781;DHT22;10050;55.492;13.506;2023-02-01T06:20:59;4.00;99.90
19781;DHT22;10050;55.492;13.506;2023-02-01T06:23:26;4.00;99.90
19781;DHT22;10050;55.492;13.506;2023-02-01T06:25:53;4.00;99.90
19781;DHT22;10050;55.492;13.506;2023-02-01T06:28:23;4.00;99.90
19781;DHT22;10050;55.492;13.506;2023-02-01T06:30:49;4.10;99.90
19781;DHT22;10050;55.492;13.506;2023-02-01T06:33:15;4.00;99.90
19781;DHT22;10050;55.492;13.506;2023-02-01T06:35:44;4.00;99.90
19781;DHT22;10050;55.492;13.506;2023-02-01T06:38:11;4.00;99.90
19781;DHT22;10050;55.492;13.506;2023-02-01T06:40:37;4.00;99.90
19781;DHT22;10050;55.492;13.506;2023-02-01T06:43:03;3.90;99.90
19781;DHT22;10050;55.492;13.506;2023-02-01T06:45:29;3.90;99.90
19781;DHT22;10050;55.492;13.506;2023-02-01T06:47:55;3.90;99.90
19781;DHT22;10050;55.492;13.506;2023-02-01T06:50:20;3.90;99.90
19781;DHT22;10050;55.492;13.506;2023-02-01T06:52:46;4.00;99.90
19781;DHT22;10050;55.492;13.506;2023-02-01T06:55:12;3.90;99.90
19781;DHT22;10050;55.492;13.506;2023-02-01T06:57:38;4.00;99.90
19781;DHT22;10050;55.492;13.506;2023-02-01T07:00:05;4.00;99.90
19781;DHT22;10050;55.492;13.506;2023-02-01T07:02:31;4.00;99.90
19781;DHT22;10050;55.492;13.506;2023-02-01T07:04:56;4.00;99.90
19781;DHT22;10050;55.492;13.506;2023-02-01T07:07:22;4.00;99.90
19781;DHT22;10050;55.492;13.506;2023-02-01T07:09:51;4.10;99.90
19781;DHT22;10050;55.492;13.506;2023-02-01T07:12:17;4.20;99.90
19781;DHT22;10050;55.492;13.506;2023-02-01T07:14:44;4.10;99.90
19781;DHT22;10050;55.492;13.506;2023-02-01T07:17:09;4.10;99.90
19781;DHT22;10050;55.492;13.506;2023-02-01T07:19:36;4.20;99.90
19781;DHT22;10050;55.492;13.506;2023-02-01T07:22:02;4.40;99.90
19781;DHT22;10050;55.492;13.506;2023-02-01T07:24:27;4.40;99.90
19781;DHT22;10050;55.492;13.506;2023-02-01T07:26:53;4.40;99.90
19781;DHT22;10050;55.492;13.506;2023-02-01T07:29:19;4.40;99.90
19781;DHT22;10050;55.492;13.506;2023-02-01T07:31:44;4.30;99.90
19781;DHT22;10050;55.492;13.506;2023-02-01T07:34:10;4.30;99.90
19781;DHT22;10050;55.492;13.506;2023-02-01T07:36:36;4.30;99.90
19781;DHT22;10050;55.492;13.506;2023-02-01T07:39:03;4.40;99.90
19781;DHT22;10050;55.492;13.506;2023-02-01T07:41:29;4.30;99.90
19781;DHT22;10050;55.492;13.506;2023-02-01T07:43:55;4.40;99.90
19781;DHT22;10050;55.492;13.506;2023-02-01T07:46:21;4.50;99.90
19781;DHT22;10050;55.492;13.506;2023-02-01T07:48:46;4.40;99.90
19781;DHT22;10050;55.492;13.506;2023-02-01T07:51:14;4.40;99.90
19781;DHT22;10050;55.492;13.506;2023-02-01T07:53:40;4.30;99.90
19781;DHT22;10050;55.492;13.506;2023-02-01T07:56:15;4.30;99.90
19781;DHT22;10050;55.492;13.506;2023-02-01T07:58:42;4.30;99.90
19781;DHT22;10050;55.492;13.506;2023-02-01T08:01:16;4.40;99.90
19781;DHT22;10050;55.492;13.506;2023-02-01T08:03:55;4.60;99.90
19781;DHT22;10050;55.492;13.506;2023-02-01T08:06:22;4.70;99.90
19781;DHT22;10050;55.492;13.506;2023-02-01T08:08:49;4.70;99.90
19781;DHT22;10050;55.492;13.506;2023-02-01T08:11:16;4.80;99.90
19781;DHT22;10050;55.492;13.506;2023-02-01T08:13:42;4.90;99.90
19781;DHT22;10050;55.492;13.506;2023-02-01T08:16:09;5.10;99.90
19781;DHT22;10050;55.492;13.506;2023-02-01T08:18:37;5.40;99.90
19781;DHT22;10050;55.492;13.506;2023-02-01T08:21:07;6.10;99.90
19781;DHT22;10050;55.492;13.506;2023-02-01T08:23:35;7.60;99.90
19781;DHT22;10050;55.492;13.506;2023-02-01T08:26:09;8.90;99.90
19781;DHT22;10050;55.492;13.506;2023-02-01T08:28:36;8.60;99.90
19781;DHT22;10050;55.492;13.506;2023-02-01T08:31:09;7.60;99.90
19781;DHT22;10050;55.492;13.506;2023-02-01T08:33:36;6.80;99.90
19781;DHT22;10050;55.492;13.506;2023-02-01T08:36:05;6.00;99.90
19781;DHT22;10050;55.492;13.506;2023-02-01T08:38:31;5.60;99.90
19781;DHT22;10050;55.492;13.506;2023-02-01T08:40:57;5.30;99.90
19781;DHT22;10050;55.492;13.506;2023-02-01T08:43:23;5.20;99.90
19781;DHT22;10050;55.492;13.506;2023-02-01T08:45:50;5.10;99.90
19781;DHT22;10050;55.492;13.506;2023-02-01T08:48:18;5.00;99.90
19781;DHT22;10050;55.492;13.506;2023-02-01T08:50:44;5.00;99.90
19781;DHT22;10050;55.492;13.506;2023-02-01T08:53:10;5.20;99.90
19781;DHT22;10050;55.492;13.506;2023-02-01T08:55:37;5.50;99.90
19781;DHT22;10050;55.492;13.506;2023-02-01T08:58:03;7.10;99.90
19781;DHT22;10050;55.492;13.506;2023-02-01T09:00:28;9.30;99.90
19781;DHT22;10050;55.492;13.506;2023-02-01T09:02:55;11.00;99.90
19781;DHT22;10050;55.492;13.506;2023-02-01T09:05:20;12.60;99.90
19781;DHT22;10050;55.492;13.506;2023-02-01T09:07:47;12.80;99.90
19781;DHT22;10050;55.492;13.506;2023-02-01T09:10:13;12.90;99.90
19781;DHT22;10050;55.492;13.506;2023-02-01T09:12:39;12.90;99.90
19781;DHT22;10050;55.492;13.506;2023-02-01T09:15:05;11.90;99.90
19781;DHT22;10050;55.492;13.506;2023-02-01T09:17:32;10.70;99.90
19781;DHT22;10050;55.492;13.506;2023-02-01T09:19:58;9.70;99.90
19781;DHT22;10050;55.492;13.506;2023-02-01T09:22:24;9.80;99.90
19781;DHT22;10050;55.492;13.506;2023-02-01T09:24:49;9.30;99.90
19781;DHT22;10050;55.492;13.506;2023-02-01T09:27:15;9.20;99.90
19781;DHT22;10050;55.492;13.506;2023-02-01T09:29:41;9.00;99.90
19781;DHT22;10050;55.492;13.506;2023-02-01T09:32:06;8.60;99.90
19781;DHT22;10050;55.492;13.506;2023-02-01T09:34:33;8.20;99.90
19781;DHT22;10050;55.492;13.506;2023-02-01T09:36:59;7.90;99.90
19781;DHT22;10050;55.492;13.506;2023-02-01T09:39:24;8.20;99.90
19781;DHT22;10050;55.492;13.506;2023-02-01T09:47:23;9.00;99.90
19781;DHT22;10050;55.492;13.506;2023-02-01T09:52:38;9.70;99.90
19781;DHT22;10050;55.492;13.506;2023-02-01T09:55:26;9.40;99.90
19781;DHT22;10050;55.492;13.506;2023-02-01T09:58:00;9.10;99.90
19781;DHT22;10050;55.492;13.506;2023-02-01T10:00:30;9.50;99.90
19781;DHT22;10050;55.492;13.506;2023-02-01T10:02:59;10.10;99.90
19781;DHT22;10050;55.492;13.506;2023-02-01T10:08:47;10.30;99.90
19781;DHT22;10050;55.492;13.506;2023-02-01T10:14:41;8.40;99.90
19781;DHT22;10050;55.492;13.506;2023-02-01T10:22:44;7.30;99.90
19781;DHT22;10050;55.492;13.506;2023-02-01T10:25:32;7.10;99.90
19781;DHT22;10050;55.492;13.506;2023-02-01T10:28:01;7.20;99.90
19781;DHT22;10050;55.492;13.506;2023-02-01T10:30:43;7.10;99.90
19781;DHT22;10050;55.492;13.506;2023-02-01T10:33:27;7.10;99.90
19781;DHT22;10050;55.492;13.506;2023-02-01T10:36:49;7.30;99.90
19781;DHT22;10050;55.492;13.506;2023-02-01T10:38:45;7.50;99.90
19781;DHT22;10050;55.492;13.506;2023-02-01T10:41:15;7.80;99.90
19781;DHT22;10050;55.492;13.506;2023-02-01T10:43:43;7.70;99.90
19781;DHT22;10050;55.492;13.506;2023-02-01T10:46:11;8.00;99.90
19781;DHT22;10050;55.492;13.506;2023-02-01T10:48:37;8.00;99.90
19781;DHT22;10050;55.492;13.506;2023-02-01T10:51:14;8.20;99.90
19781;DHT22;10050;55.492;13.506;2023-02-01T10:53:47;8.40;99.90
19781;DHT22;10050;55.492;13.506;2023-02-01T10:56:25;8.90;99.90
19781;DHT22;10050;55.492;13.506;2023-02-01T10:58:52;9.50;99.90
19781;DHT22;10050;55.492;13.506;2023-02-01T11:01:39;9.70;99.90
19781;DHT22;10050;55.492;13.506;2023-02-01T11:04:16;9.50;99.90
19781;DHT22;10050;55.492;13.506;2023-02-01T11:06:45;9.20;99.90
19781;DHT22;10050;55.492;13.506;2023-02-01T11:09:16;9.00;99.90
19781;DHT22;10050;55.492;13.506;2023-02-01T11:11:55;8.90;99.90
19781;DHT22;10050;55.492;13.506;2023-02-01T11:19:19;8.20;99.90
19781;DHT22;10050;55.492;13.506;2023-02-01T11:21:52;7.90;99.90
19781;DHT22;10050;55.492;13.506;2023-02-01T11:24:25;7.60;99.90
19781;DHT22;10050;55.492;13.506;2023-02-01T11:26:55;7.30;99.90
19781;DHT22;10050;55.492;13.506;2023-02-01T11:29:21;7.30;99.90
19781;DHT22;10050;55.492;13.506;2023-02-01T11:31:58;7.30;99.90
19781;DHT22;10050;55.492;13.506;2023-02-01T11:34:28;7.60;99.90
19781;DHT22;10050;55.492;13.506;2023-02-01T11:37:00;7.50;99.90
19781;DHT22;10050;55.492;13.506;2023-02-01T11:39:33;7.20;99.90
19781;DHT22;10050;55.492;13.506;2023-02-01T11:42:13;7.00;99.90
19781;DHT22;10050;55.492;13.506;2023-02-01T11:44:42;6.90;99.90
19781;DHT22;10050;55.492;13.506;2023-02-01T11:47:21;6.90;99.90
19781;DHT22;10050;55.492;13.506;2023-02-01T11:49:54;6.60;99.90
19781;DHT22;10050;55.492;13.506;2023-02-01T11:55:18;6.50;99.90
19781;DHT22;10050;55.492;13.506;2023-02-01T12:08:57;6.80;99.90
19781;DHT22;10050;55.492;13.506;2023-02-01T12:11:33;7.10;99.90
19781;DHT22;10050;55.492;13.506;2023-02-01T12:14:37;7.20;99.90
19781;DHT22;10050;55.492;13.506;2023-02-01T12:19:47;7.10;99.90
19781;DHT22;10050;55.492;13.506;2023-02-01T12:28:15;7.10;99.90
19781;DHT22;10050;55.492;13.506;2023-02-01T12:36:36;6.70;99.90
19781;DHT22;10050;55.492;13.506;2023-02-01T12:42:20;6.50;99.90
19781;DHT22;10050;55.492;13.506;2023-02-01T12:44:54;6.40;99.90
19781;DHT22;10050;55.492;13.506;2023-02-01T12:47:44;6.30;99.90
19781;DHT22;10050;55.492;13.506;2023-02-01T12:52:48;6.30;99.90
19781;DHT22;10050;55.492;13.506;2023-02-01T12:57:47;6.30;99.90
19781;DHT22;10050;55.492;13.506;2023-02-01T13:00:26;6.20;99.90
19781;DHT22;10050;55.492;13.506;2023-02-01T13:03:01;6.10;99.90
19781;DHT22;10050;55.492;13.506;2023-02-01T13:05:37;6.00;99.90
19781;DHT22;10050;55.492;13.506;2023-02-01T13:08:12;5.90;99.90
19781;DHT22;10050;55.492;13.506;2023-02-01T13:11:03;5.70;99.90
19781;DHT22;10050;55.492;13.506;2023-02-01T13:13:44;5.70;99.90
19781;DHT22;10050;55.492;13.506;2023-02-01T13:16:40;5.50;99.90
19781;DHT22;10050;55.492;13.506;2023-02-01T13:19:17;5.50;99.90
19781;DHT22;10050;55.492;13.506;2023-02-01T13:21:51;5.50;99.90
19781;DHT22;10050;55.492;13.506;2023-02-01T13:24:36;5.50;99.90
19781;DHT22;10050;55.492;13.506;2023-02-01T13:27:03;5.40;99.90
19781;DHT22;10050;55.492;13.506;2023-02-01T13:29:30;5.40;99.90
19781;DHT22;10050;55.492;13.506;2023-02-01T13:37:33;5.30;99.90
19781;DHT22;10050;55.492;13.506;2023-02-01T13:43:16;5.40;99.90
19781;DHT22;10050;55.492;13.506;2023-02-01T13:45:50;5.40;99.90
19781;DHT22;10050;55.492;13.506;2023-02-01T13:48:26;5.50;99.90
19781;DHT22;10050;55.492;13.506;2023-02-01T13:50:56;5.50;99.90
19781;DHT22;10050;55.492;13.506;2023-02-01T13:53:32;5.50;99.90
19781;DHT22;10050;55.492;13.506;2023-02-01T13:56:04;5.50;99.90
19781;DHT22;10050;55.492;13.506;2023-02-01T13:58:40;5.30;99.90
19781;DHT22;10050;55.492;13.506;2023-02-01T14:03:54;5.40;99.90
19781;DHT22;10050;55.492;13.506;2023-02-01T14:11:38;5.40;99.90
19781;DHT22;10050;55.492;13.506;2023-02-01T14:16:43;5.60;99.90
19781;DHT22;10050;55.492;13.506;2023-02-01T14:19:26;5.50;99.90
19781;DHT22;10050;55.492;13.506;2023-02-01T14:21:56;5.40;99.90
19781;DHT22;10050;55.492;13.506;2023-02-01T14:24:26;5.30;99.90
19781;DHT22;10050;55.492;13.506;2023-02-01T14:26:54;5.30;99.90
19781;DHT22;10050;55.492;13.506;2023-02-01T14:29:35;5.20;99.90
19781;DHT22;10050;55.492;13.506;2023-02-01T14:32:18;5.20;99.90
19781;DHT22;10050;55.492;13.506;2023-02-01T14:40:00;5.20;99.90
19781;DHT22;10050;55.492;13.506;2023-02-01T14:47:49;5.10;99.90
19781;DHT22;10050;55.492;13.506;2023-02-01T14:50:29;5.10;99.90
19781;DHT22;10050;55.492;13.506;2023-02-01T14:56:06;5.10;99.90
19781;DHT22;10050;55.492;13.506;2023-02-01T15:01:34;5.20;99.90
19781;DHT22;10050;55.492;13.506;2023-02-01T15:04:10;5.20;99.90
19781;DHT22;10050;55.492;13.506;2023-02-01T15:12:17;5.10;99.90
19781;DHT22;10050;55.492;13.506;2023-02-01T15:15:10;5.20;99.90
19781;DHT22;10050;55.492;13.506;2023-02-01T15:17:37;5.20;99.90
19781;DHT22;10050;55.492;13.506;2023-02-01T15:22:37;5.20;99.90
19781;DHT22;10050;55.492;13.506;2023-02-01T15:25:03;5.20;99.90
19781;DHT22;10050;55.492;13.506;2023-02-01T15:27:30;5.20;99.90
19781;DHT22;10050;55.492;13.506;2023-02-01T15:30:17;5.10;99.90
19781;DHT22;10050;55.492;13.506;2023-02-01T15:32:43;5.10;99.90
19781;DHT22;10050;55.492;13.506;2023-02-01T15:35:41;5.10;99.90
19781;DHT22;10050;55.492;13.506;2023-02-01T15:46:31;5.10;99.90
19781;DHT22;10050;55.492;13.506;2023-02-01T15:48:58;5.10;99.90
19781;DHT22;10050;55.492;13.506;2023-02-01T15:51:27;5.10;99.90
19781;DHT22;10050;55.492;13.506;2023-02-01T15:54:06;5.10;99.90
19781;DHT22;10050;55.492;13.506;2023-02-01T15:56:37;5.10;99.90
19781;DHT22;10050;55.492;13.506;2023-02-01T15:59:06;5.10;99.90
19781;DHT22;10050;55.492;13.506;2023-02-01T16:01:38;5.10;99.90
19781;DHT22;10050;55.492;13.506;2023-02-01T16:04:14;5.10;99.90
19781;DHT22;10050;55.492;13.506;2023-02-01T16:06:49;5.10;99.90
19781;DHT22;10050;55.492;13.506;2023-02-01T16:09:18;5.00;99.90
19781;DHT22;10050;55.492;13.506;2023-02-01T16:11:51;5.00;99.90
19781;DHT22;10050;55.492;13.506;2023-02-01T16:14:17;5.00;99.90
19781;DHT22;10050;55.492;13.506;2023-02-01T16:16:43;5.00;99.90
19781;DHT22;10050;55.492;13.506;2023-02-01T16:19:09;5.00;99.90
19781;DHT22;10050;55.492;13.506;2023-02-01T16:21:35;4.90;99.90
19781;DHT22;10050;55.492;13.506;2023-02-01T16:24:00;4.90;99.90
19781;DHT22;10050;55.492;13.506;2023-02-01T16:26:32;4.90;99.90
19781;DHT22;10050;55.492;13.506;2023-02-01T16:28:58;4.90;99.90
19781;DHT22;10050;55.492;13.506;2023-02-01T16:31:28;4.90;99.90
19781;DHT22;10050;55.492;13.506;2023-02-01T16:33:54;4.90;99.90
19781;DHT22;10050;55.492;13.506;2023-02-01T16:36:20;4.90;99.90
19781;DHT22;10050;55.492;13.506;2023-02-01T16:38:47;5.00;99.90
19781;DHT22;10050;55.492;13.506;2023-02-01T16:41:16;5.00;99.90
19781;DHT22;10050;55.492;13.506;2023-02-01T16:43:42;5.00;99.90
19781;DHT22;10050;55.492;13.506;2023-02-01T16:46:19;5.00;99.90
19781;DHT22;10050;55.492;13.506;2023-02-01T16:48:52;5.00;99.90
19781;DHT22;10050;55.492;13.506;2023-02-01T16:51:18;5.00;99.90
19781;DHT22;10050;55.492;13.506;2023-02-01T16:53:45;5.00;99.90
19781;DHT22;10050;55.492;13.506;2023-02-01T16:56:19;4.90;99.90
19781;DHT22;10050;55.492;13.506;2023-02-01T16:58:45;4.90;99.90
19781;DHT22;10050;55.492;13.506;2023-02-01T17:01:13;4.90;99.90
19781;DHT22;10050;55.492;13.506;2023-02-01T17:03:39;4.80;99.90
19781;DHT22;10050;55.492;13.506;2023-02-01T17:06:07;4.80;99.90
19781;DHT22;10050;55.492;13.506;2023-02-01T17:08:39;4.80;99.90
19781;DHT22;10050;55.492;13.506;2023-02-01T17:11:06;4.80;99.90
19781;DHT22;10050;55.492;13.506;2023-02-01T17:13:32;4.80;99.90
19781;DHT22;10050;55.492;13.506;2023-02-01T17:16:02;4.80;99.90
19781;DHT22;10050;55.492;13.506;2023-02-01T17:18:31;4.80;99.90
19781;DHT22;10050;55.492;13.506;2023-02-01T17:20:58;4.80;99.90
19781;DHT22;10050;55.492;13.506;2023-02-01T17:23:24;4.80;99.90
19781;DHT22;10050;55.492;13.506;2023-02-01T17:25:50;4.80;99.90
19781;DHT22;10050;55.492;13.506;2023-02-01T17:28:16;4.80;99.90
19781;DHT22;10050;55.492;13.506;2023-02-01T17:30:42;4.80;99.90
19781;DHT22;10050;55.492;13.506;2023-02-01T17:33:27;4.90;99.90
19781;DHT22;10050;55.492;13.506;2023-02-01T17:35:55;4.90;99.90
19781;DHT22;10050;55.492;13.506;2023-02-01T17:38:22;4.90;99.90
19781;DHT22;10050;55.492;13.506;2023-02-01T17:40:48;5.00;99.90
19781;DHT22;10050;55.492;13.506;2023-02-01T17:43:16;5.00;99.90
19781;DHT22;10050;55.492;13.506;2023-02-01T17:45:51;5.00;99.90
19781;DHT22;10050;55.492;13.506;2023-02-01T17:48:19;5.00;99.90
19781;DHT22;10050;55.492;13.506;2023-02-01T17:50:47;5.00;99.90
19781;DHT22;10050;55.492;13.506;2023-02-01T17:53:14;5.00;99.90
19781;DHT22;10050;55.492;13.506;2023-02-01T17:55:43;5.00;99.90
19781;DHT22;10050;55.492;13.506;2023-02-01T17:58:11;5.00;99.90
19781;DHT22;10050;55.492;13.506;2023-02-01T18:00:38;5.00;99.90
19781;DHT22;10050;55.492;13.506;2023-02-01T18:03:04;5.00;99.90
19781;DHT22;10050;55.492;13.506;2023-02-01T18:05:40;5.00;99.90
19781;DHT22;10050;55.492;13.506;2023-02-01T18:08:08;4.90;99.90
19781;DHT22;10050;55.492;13.506;2023-02-01T18:10:34;4.90;99.90
19781;DHT22;10050;55.492;13.506;2023-02-01T18:13:01;4.80;99.90
19781;DHT22;10050;55.492;13.506;2023-02-01T18:15:29;4.80;99.90
19781;DHT22;10050;55.492;13.506;2023-02-01T18:17:55;4.70;99.90